AirNav   Pilot Hours Calculator
 
 1452 users online  

NE84 Memorial Hospital Heliport
Aurora, Nebraska, USA

GOING TO AURORA?


FAA INFORMATION EFFECTIVE 02 JANUARY 2020

Location

FAA Identifier: NE84
Lat/Long: 40-52-14.9100N 098-00-42.2600W
40-52.248500N 098-00.704333W
40.8708083,-98.0117389
(estimated)
Elevation: 1802 ft. / 549 m (estimated)
Variation: 07E (1990)
Time zone: UTC -6 (UTC -5 during Daylight Saving Time)
Zip code: 68818

Heliport Operations

Heliport use: Private use, MEDICAL USE.
Activation date: 02/1993
Control tower: no
ARTCC: MINNEAPOLIS CENTER
FSS: COLUMBUS FLIGHT SERVICE STATION
Attendance: CONTINUOUS
Wind indicator: yes
Segmented circle: no
Lights: FOR PERIMETER AND FLOOD LGTS CALL 402-694-3171.

Heliport Communications

WX AWOS-3 at AUH (1.6 nm NE): 121.225 (402-694-5472)
WX ASOS at GRI (15 nm NW): PHONE 308-382-5590
WX AWOS-3 at JYR (18 nm E): 124.175 (402-362-3785)
  • MEDICAL FREQ ENCODE 223.

Nearby radio navigation aids

VOR radial/distance  VOR name  Freq  Var
GRIr109/15.3GRAND ISLAND VOR/DME112.0007E
HSIr043/24.8HASTINGS VOR/DME108.8007E
OBHr146/34.0WOLBACH VORTAC114.8007E

 
NDB name  Hdg/Dist  Freq  Var  ID
SANCY084/13.738007EGR --. .-.
YORK259/18.025706EJYR .--- -.-- .-.
BEKLOF303/26.339207EFMZ ..-. -- --..

Heliport Services

Runway Information

Helipad H1

Dimensions: 40 x 40 ft. / 12 x 12 m
Surface: concrete
Runway edge lights: PERI
AND FLOOD LGTS.
Latitude: 40-52.248500N
Longitude: 098-00.704333W
Elevation: 1802.0 ft.
Traffic pattern: leftleft

Heliport Ownership and Management from official FAA records

Ownership: Privately-owned
Owner: MEMORIAL HOSPITAL
1423 SEVENTH ST
AURORA, NE 68818-1197
Phone 402-694-3171
Manager: DIANE KELLER, CEO
1423 SEVENTH ST
AURORA, NE 68818-1197
Phone 402-694-8202
ADDITIONAL CONTACT: TAYLOR COMER 402-694-8224 TCOMER@MCHIAURORA.ORG

Additional Remarks

OWNER DESIRES HELIPAD NOT BE CHARTED.
FOR CD CTC MINNEAPOLIS ARTCC AT 651-463-5588.

Instrument Procedures

There are no published instrument procedures at NE84.

Some nearby airports with instrument procedures:

KAUH - Aurora Municipal Airport - Al Potter Field (2 nm NE)
08K - Harvard State Airport (14 nm S)
07K - Central City Municipal Airport - Larry Reineke Field (15 nm N)
KGRI - Central Nebraska Regional Airport (15 nm NW)
KJYR - York Municipal Airport (18 nm E)
 
Loc | Ops | Rwys | IFR | FBO | Links
Com | Nav | Svcs | Stats | Notes

Silverhawk Aviation, Inc.
AirBoss

 
Area around NE84 (Memorial Hospital Heliport)
 
Road maps at: MapQuest Bing Google
 
Aerial photo
No photo
 
Sectional chart

 
Airport distance calculator
Flying to Memorial Hospital Heliport? Find the distance to fly.

From to NE84

Sunrise and sunset
Times for 21-Jan-2020
 Local
(UTC-6)
 Zulu
(UTC)
Morning civil twilight07:2313:23
Sunrise07:5213:52
Sunset17:3523:35
Evening civil twilight18:0400:04

Current date and time
Zulu (UTC)  21-Jan-2020 15:26:31
Local (UTC-6)  21-Jan-2020 09:26:31
 
METAR
KAUH 211515Z AUTO 19010KT 10SM CLR M12/M14 A3034 RMK AO2 T11221144
KGRI 
15nm NW 
211453Z 18010KT 10SM CLR M12/M15 A3032 RMK AO2 SLP313 T11221150 56023
KJYR 
18nm E 
211515Z AUTO 19011KT 10SM CLR M14/M15 A3036 RMK AO2
TAF
KGRI 
15nm NW 
211140Z 2112/2212 19009KT P6SM SCT250 FM220000 18015G20KT 6SM -SN SCT025 OVC050 FM220300 19018G24KT 6SM -SN OVC012 FM220600 19016KT 6SM -SN OVC006 FM220900 19013KT P6SM OVC005
NOTAMs
Click for the latest NOTAMs
NOTAMs are issued by the DoD/FAA and will open in a separate window not controlled by AirNav.

 

 
 

Would you like to see your business listed on this page?

 If your business provides an interesting product or service to pilots, flight crews, aircraft, or users of the Memorial Hospital Heliport, you should consider listing it here.  To start the listing process, click on the button below
 
Add a business
 

Other Pages about Memorial Hospital Heliport

Update a link
 
Copyright © AirNav, LLC. All rights reserved. Privacy Policy  Contact